Time;durP1;ratioP1;P1;durP2;ratioP2;P2;SDS_P1;SDS_P2;PMS_P1;PMS_P2;Temp;Humidity;BMP_temperature;BMP_pressure;BME280_temperature;BME280_humidity;BME280_pressure;Samples;Min_cycle;Max_cycle;Signal;HPM_P1;HPM_P2
2021/03/26 00:00:41;;;;;;;11.93;8.50;;;13.00;29.00;;;;;;4994049;28;20449;-70
2021/03/26 00:03:10;;;;;;;8.10;7.30;;;12.70;29.70;;;;;;4994144;28;20433;-71
2021/03/26 00:05:37;;;;;;;9.50;8.50;;;12.60;30.70;;;;;;4994035;28;20409;-72
2021/03/26 00:08:06;;;;;;;9.33;8.10;;;12.70;29.80;;;;;;4993588;28;20496;-72
2021/03/26 00:10:32;;;;;;;9.07;8.17;;;12.50;30.50;;;;;;4994204;28;20944;-69
2021/03/26 00:12:58;;;;;;;9.00;8.20;;;12.30;30.80;;;;;;4993953;28;20484;-69
2021/03/26 00:15:23;;;;;;;8.20;7.50;;;12.30;31.40;;;;;;4994062;28;20185;-71
2021/03/26 00:17:49;;;;;;;9.47;8.57;;;12.30;31.00;;;;;;4992210;28;20197;-73
2021/03/26 00:20:15;;;;;;;9.37;8.00;;;12.40;30.70;;;;;;4993711;28;20241;-70
2021/03/26 00:22:40;;;;;;;11.50;8.97;;;12.50;31.10;;;;;;4994015;28;20237;-70
2021/03/26 00:25:08;;;;;;;8.87;8.00;;;12.50;30.70;;;;;;4994026;28;20445;-70
2021/03/26 00:27:33;;;;;;;9.50;8.60;;;12.70;30.50;;;;;;4993403;28;20180;-73
2021/03/26 00:29:59;;;;;;;10.00;8.60;;;12.80;30.00;;;;;;4993933;28;20417;-69
2021/03/26 00:32:25;;;;;;;11.00;9.10;;;12.80;30.60;;;;;;4993954;28;20209;-69
2021/03/26 00:34:51;;;;;;;9.27;8.37;;;12.80;29.80;;;;;;4993725;28;20185;-70
2021/03/26 00:37:17;;;;;;;10.23;8.60;;;12.90;29.60;;;;;;4992566;28;20232;-70
2021/03/26 00:39:43;;;;;;;10.00;9.00;;;12.80;29.70;;;;;;4992211;28;20461;-70
2021/03/26 00:42:09;;;;;;;9.07;8.37;;;12.80;29.80;;;;;;4993280;28;20587;-70
2021/03/26 00:44:36;;;;;;;10.03;9.10;;;12.80;30.00;;;;;;4993511;28;20556;-70
2021/03/26 00:47:01;;;;;;;9.60;8.57;;;12.90;29.80;;;;;;4993167;28;20410;-69
2021/03/26 00:49:27;;;;;;;11.70;8.40;;;12.90;29.70;;;;;;4992747;28;20424;-69
2021/03/26 00:51:52;;;;;;;10.33;8.83;;;12.70;29.90;;;;;;4993201;28;20178;-69
2021/03/26 00:54:18;;;;;;;9.40;8.50;;;12.70;30.00;;;;;;4993352;28;20665;-70
2021/03/26 00:56:44;;;;;;;10.17;8.87;;;12.70;30.10;;;;;;4993105;28;20178;-70
2021/03/26 00:59:11;;;;;;;9.10;8.40;;;12.40;30.20;;;;;;4992530;28;20548;-71
2021/03/26 01:01:37;;;;;;;11.93;8.27;;;12.30;30.70;;;;;;4993157;28;20410;-70
2021/03/26 01:04:03;;;;;;;9.10;8.20;;;12.30;31.50;;;;;;4992989;28;20448;-71
2021/03/26 01:06:29;;;;;;;11.10;8.43;;;12.30;31.40;;;;;;4993057;28;20201;-71
2021/03/26 01:08:54;;;;;;;10.03;9.23;;;12.40;31.20;;;;;;4992273;28;20448;-71
2021/03/26 01:11:28;;;;;;;9.40;8.57;;;12.50;30.60;;;;;;4992903;28;20475;-72
2021/03/26 01:13:56;;;;;;;10.80;8.40;;;12.50;30.50;;;;;;4993005;28;20194;-70
2021/03/26 01:16:24;;;;;;;9.23;8.20;;;12.40;30.80;;;;;;4992938;28;20417;-70
2021/03/26 01:18:49;;;;;;;9.50;8.30;;;12.30;31.00;;;;;;4992149;28;20503;-70
2021/03/26 01:21:21;;;;;;;8.53;7.73;;;12.20;30.60;;;;;;4992796;28;20445;-71
2021/03/26 01:23:47;;;;;;;10.53;8.90;;;12.20;30.90;;;;;;4992665;28;20201;-72
2021/03/26 01:26:13;;;;;;;8.90;8.10;;;12.30;30.20;;;;;;4992664;28;20471;-69
2021/03/26 01:28:38;;;;;;;7.90;7.20;;;12.30;30.80;;;;;;5007158;28;20209;-70
2021/03/26 01:31:05;;;;;;;9.83;8.77;;;12.20;30.80;;;;;;4992556;28;21007;-68
2021/03/26 01:33:30;;;;;;;8.87;7.80;;;12.20;31.30;;;;;;4992429;28;20190;-69
2021/03/26 01:35:57;;;;;;;11.13;8.50;;;12.20;31.10;;;;;;4992599;28;20479;-69
2021/03/26 01:38:24;;;;;;;9.67;8.77;;;12.10;31.10;;;;;;4991701;28;20196;-70
2021/03/26 01:41:02;;;;;;;9.70;7.90;;;12.10;31.10;;;;;;4992481;28;20931;-71
2021/03/26 01:43:31;;;;;;;8.93;8.03;;;12.10;31.30;;;;;;4992750;28;20809;-69
2021/03/26 01:45:57;;;;;;;8.43;7.63;;;12.00;31.70;;;;;;4991232;28;20516;-71
2021/03/26 01:48:33;;;;;;;10.30;8.03;;;12.10;31.60;;;;;;4991333;28;20432;-71
2021/03/26 01:51:00;;;;;;;9.83;8.93;;;12.10;31.60;;;;;;4992100;28;20429;-71
2021/03/26 01:53:27;;;;;;;9.23;7.70;;;12.30;31.30;;;;;;4990777;28;20780;-71
2021/03/26 01:55:55;;;;;;;10.00;8.90;;;12.20;31.40;;;;;;4992092;28;20783;-71
2021/03/26 01:58:24;;;;;;;9.97;9.00;;;12.20;32.30;;;;;;4991632;28;20425;-71
2021/03/26 02:01:12;;;;;;;10.63;9.53;;;12.10;32.00;;;;;;4992009;28;20803;-70
2021/03/26 02:03:45;;;;;;;9.00;8.30;;;12.20;31.80;;;;;;4991917;28;20907;-72
2021/03/26 02:06:24;;;;;;;10.77;9.00;;;12.30;31.40;;;;;;4992065;28;20484;-69
2021/03/26 02:08:51;;;;;;;11.90;10.03;;;12.30;31.30;;;;;;4989964;28;20429;-70
2021/03/26 02:11:31;;;;;;;10.57;9.23;;;12.20;31.40;;;;;;4991803;28;20428;-71
2021/03/26 02:13:59;;;;;;;11.60;10.37;;;12.30;31.50;;;;;;4991838;28;20440;-69
2021/03/26 02:16:25;;;;;;;10.73;9.67;;;12.30;31.60;;;;;;4991779;28;20504;-70
2021/03/26 02:18:51;;;;;;;10.87;9.77;;;12.20;31.90;;;;;;4991011;28;20457;-69
2021/03/26 02:21:25;;;;;;;10.77;8.77;;;12.10;32.20;;;;;;4991689;28;20778;-70
2021/03/26 02:23:53;;;;;;;10.80;9.70;;;12.20;32.10;;;;;;4991685;28;20196;-70
2021/03/26 02:26:26;;;;;;;10.40;9.30;;;12.20;32.30;;;;;;4991597;28;20487;-71
2021/03/26 02:28:52;;;;;;;10.70;8.70;;;12.10;31.80;;;;;;4991083;28;20441;-69
2021/03/26 02:31:18;;;;;;;10.30;9.30;;;11.90;32.30;;;;;;4991644;28;20405;-69
2021/03/26 02:33:45;;;;;;;10.73;9.63;;;11.70;32.60;;;;;;4991480;28;20444;-71
2021/03/26 02:36:16;;;;;;;10.10;9.20;;;11.70;33.00;;;;;;4991603;28;20459;-70
2021/03/26 02:38:50;;;;;;;13.00;9.53;;;11.90;32.60;;;;;;4990600;28;20433;-69
2021/03/26 02:41:27;;;;;;;10.97;9.30;;;11.90;32.50;;;;;;4991587;28;20523;-70
2021/03/26 02:44:16;;;;;;;8.80;7.90;;;12.10;32.50;;;;;;4991444;28;20515;-70
2021/03/26 02:46:51;;;;;;;9.50;8.70;;;12.20;32.20;;;;;;4991327;28;20436;-70
2021/03/26 02:49:44;;;;;;;10.97;9.80;;;12.10;32.30;;;;;;4990880;28;20407;-70
2021/03/26 02:52:33;;;;;;;11.43;9.50;;;12.10;32.40;;;;;;4991367;28;20490;-70
2021/03/26 02:55:21;;;;;;;9.87;8.80;;;12.10;32.20;;;;;;4990834;28;20428;-71
2021/03/26 02:58:12;;;;;;;10.40;8.97;;;12.00;32.20;;;;;;4990884;28;20421;-71
2021/03/26 03:00:44;;;;;;;12.60;10.10;;;11.90;32.60;;;;;;4984211;28;20956;-70
2021/03/26 03:03:13;;;;;;;11.23;9.80;;;12.00;32.70;;;;;;4995204;28;20461;-70
2021/03/26 03:05:45;;;;;;;15.17;10.20;;;11.90;32.80;;;;;;4995284;28;20416;-69
2021/03/26 03:08:20;;;;;;;11.63;9.70;;;11.80;33.10;;;;;;4994778;28;20495;-71
2021/03/26 03:11:02;;;;;;;12.10;9.80;;;11.80;33.10;;;;;;4995247;28;20415;-72
2021/03/26 03:13:36;;;;;;;10.40;9.40;;;11.70;33.50;;;;;;4995164;28;20527;-70
2021/03/26 03:16:12;;;;;;;10.23;9.20;;;11.70;33.00;;;;;;4995195;28;20834;-69
2021/03/26 03:18:45;;;;;;;9.87;8.90;;;11.80;33.10;;;;;;4993274;28;20938;-70
2021/03/26 03:21:25;;;;;;;11.23;9.10;;;11.90;33.10;;;;;;4995016;28;20499;-69
2021/03/26 03:24:00;;;;;;;12.60;9.90;;;11.80;33.10;;;;;;4995107;28;20425;-69
2021/03/26 03:26:36;;;;;;;10.73;9.77;;;11.80;33.10;;;;;;4995041;28;20499;-71
2021/03/26 03:32:54;;;;;;;14.60;9.77;;;11.70;33.00;;;;;;4994804;28;20999;-69
2021/03/26 03:35:37;;;;;;;11.50;10.40;;;11.70;33.00;;;;;;4994810;28;20802;-71
2021/03/26 03:38:14;;;;;;;12.43;11.13;;;11.60;33.30;;;;;;4994240;28;20437;-69
2021/03/26 03:40:56;;;;;;;10.93;9.70;;;11.70;33.40;;;;;;4994774;28;20555;-70
2021/03/26 03:43:36;;;;;;;13.23;11.53;;;11.60;33.80;;;;;;4994660;28;20429;-70
2021/03/26 03:46:15;;;;;;;11.23;10.07;;;11.60;33.50;;;;;;4995578;28;20437;-70
2021/03/26 03:48:51;;;;;;;10.60;9.50;;;11.70;33.40;;;;;;4995078;28;20488;-70
2021/03/26 03:51:30;;;;;;;16.13;10.10;;;11.70;33.20;;;;;;4995524;28;20406;-71
2021/03/26 03:54:17;;;;;;;14.73;10.90;;;11.70;33.10;;;;;;4994957;28;20433;-71
2021/03/26 03:56:48;;;;;;;13.00;9.77;;;11.60;33.30;;;;;;4994726;28;20769;-70
2021/03/26 03:59:25;;;;;;;13.20;10.00;;;11.50;33.40;;;;;;4993863;28;20453;-69
2021/03/26 04:01:58;;;;;;;11.73;10.03;;;11.50;34.10;;;;;;4994669;28;20980;-70
2021/03/26 04:04:42;;;;;;;12.93;10.77;;;11.40;34.30;;;;;;4994505;28;20408;-70
2021/03/26 04:07:12;;;;;;;12.20;10.80;;;11.30;34.70;;;;;;4993915;28;20468;-71
2021/03/26 04:09:46;;;;;;;13.97;12.77;;;11.30;35.70;;;;;;4994002;28;20756;-70
2021/03/26 04:12:24;;;;;;;12.57;11.37;;;11.20;35.10;;;;;;4993431;28;20916;-72
2021/03/26 04:15:17;;;;;;;14.80;11.67;;;11.20;35.20;;;;;;4994069;28;20420;-69
2021/03/26 04:17:51;;;;;;;15.07;13.67;;;11.30;34.90;;;;;;4993338;28;20405;-72
2021/03/26 04:20:23;;;;;;;14.57;13.30;;;11.30;34.70;;;;;;4993810;28;20456;-69
2021/03/26 04:23:12;;;;;;;13.23;11.93;;;11.40;34.50;;;;;;4993826;28;20429;-70
2021/03/26 04:25:44;;;;;;;13.60;12.20;;;11.30;34.50;;;;;;4993900;28;20413;-70
2021/03/26 04:28:17;;;;;;;14.40;13.00;;;11.30;34.50;;;;;;4993401;28;20409;-70
2021/03/26 04:30:51;;;;;;;14.17;12.17;;;11.40;35.00;;;;;;4993696;28;20905;-71
2021/03/26 04:33:17;;;;;;;13.17;11.93;;;11.50;34.30;;;;;;4993665;28;20860;-71
2021/03/26 04:35:45;;;;;;;14.23;12.40;;;11.40;34.40;;;;;;4993664;28;21046;-72
2021/03/26 04:38:40;;;;;;;13.13;11.73;;;11.40;34.30;;;;;;4993079;28;20433;-71
2021/03/26 04:41:31;;;;;;;14.70;12.10;;;11.50;34.50;;;;;;4993664;28;20413;-73
2021/03/26 04:44:13;;;;;;;13.13;11.83;;;11.60;34.00;;;;;;4993473;28;20524;-69
2021/03/26 04:47:10;;;;;;;15.03;11.50;;;11.50;34.00;;;;;;4993677;28;20421;-70
2021/03/26 04:49:42;;;;;;;12.20;11.00;;;11.60;33.90;;;;;;4993348;28;20405;-72
2021/03/26 04:52:18;;;;;;;13.50;12.30;;;11.70;33.90;;;;;;4993364;28;20457;-72
2021/03/26 04:54:50;;;;;;;14.73;13.43;;;11.70;33.40;;;;;;4992130;28;20449;-72
2021/03/26 04:57:18;;;;;;;14.13;12.80;;;11.60;33.70;;;;;;4992771;28;20413;-72
2021/03/26 05:00:20;;;;;;;15.77;14.37;;;11.60;34.10;;;;;;4993079;28;21017;-72
2021/03/26 05:02:53;;;;;;;14.73;13.23;;;11.60;34.50;;;;;;4993113;28;20436;-70
2021/03/26 05:05:19;;;;;;;14.23;12.73;;;11.60;33.70;;;;;;4993165;28;21067;-70
2021/03/26 05:07:48;;;;;;;16.93;14.37;;;11.60;34.00;;;;;;4992484;28;20409;-70
2021/03/26 05:10:18;;;;;;;15.30;13.73;;;11.60;34.60;;;;;;4992952;28;20819;-71
2021/03/26 05:13:01;;;;;;;14.60;13.37;;;11.50;34.00;;;;;;4992957;28;20447;-71
2021/03/26 05:15:35;;;;;;;15.87;14.47;;;11.40;34.60;;;;;;4992806;28;20428;-70
2021/03/26 05:18:14;;;;;;;15.83;13.80;;;11.40;35.00;;;;;;4992434;28;20435;-71
2021/03/26 05:20:52;;;;;;;16.47;13.93;;;11.50;34.10;;;;;;4992819;28;20560;-70
2021/03/26 05:23:25;;;;;;;16.87;15.07;;;11.40;34.50;;;;;;4992744;28;20527;-72
2021/03/26 05:25:56;;;;;;;22.23;15.17;;;11.30;34.60;;;;;;4992902;28;20430;-72
2021/03/26 05:28:25;;;;;;;14.80;13.30;;;11.30;34.80;;;;;;4992111;28;20483;-71
2021/03/26 05:30:52;;;;;;;16.50;14.50;;;11.20;35.00;;;;;;4992625;28;20416;-71
2021/03/26 05:33:34;;;;;;;15.57;14.07;;;11.20;34.80;;;;;;4991032;28;20480;-71
2021/03/26 05:36:17;;;;;;;19.13;13.83;;;11.20;35.10;;;;;;4984039;28;20425;-69
2021/03/26 05:39:13;;;;;;;17.33;13.00;;;11.10;35.10;;;;;;4992028;28;20444;-70
2021/03/26 05:42:09;;;;;;;14.57;13.13;;;11.10;35.30;;;;;;4987756;28;21014;-70
2021/03/26 05:44:53;;;;;;;16.47;14.27;;;11.10;35.30;;;;;;4992274;28;20769;-71
2021/03/26 05:47:47;;;;;;;15.97;14.37;;;11.10;35.50;;;;;;4991107;28;20777;-70
2021/03/26 05:50:44;;;;;;;15.77;14.17;;;11.20;35.40;;;;;;4992700;28;20496;-68
2021/03/26 05:53:40;;;;;;;16.50;14.20;;;11.20;35.50;;;;;;4991238;28;20429;-70
2021/03/26 05:56:37;;;;;;;15.77;14.27;;;11.10;35.50;;;;;;4989059;28;20428;-71
2021/03/26 05:59:22;;;;;;;17.10;15.40;;;11.00;35.60;;;;;;4991229;28;20755;-70
2021/03/26 06:01:51;;;;;;;16.93;14.80;;;11.10;35.60;;;;;;4991361;28;20412;-71
2021/03/26 06:04:43;;;;;;;15.00;13.30;;;11.10;35.50;;;;;;4992029;28;20576;-71
2021/03/26 06:07:29;;;;;;;20.97;16.60;;;11.20;36.00;;;;;;4990186;28;20421;-70
2021/03/26 06:10:23;;;;;;;21.03;15.07;;;11.30;35.50;;;;;;4991688;28;20420;-71
2021/03/26 06:13:10;;;;;;;14.87;13.30;;;11.20;35.30;;;;;;4989530;28;20789;-70
2021/03/26 06:15:42;;;;;;;14.53;13.03;;;11.00;36.00;;;;;;4992040;28;20864;-68
2021/03/26 06:18:21;;;;;;;15.20;13.70;;;10.90;35.80;;;;;;4991621;28;20409;-69
2021/03/26 06:21:15;;;;;;;23.00;14.93;;;10.90;36.30;;;;;;4991808;28;20456;-68
2021/03/26 06:24:31;;;;;;;19.00;13.03;;;11.00;36.20;;;;;;4972054;28;20434;-70
2021/03/26 06:27:09;;;;;;;15.43;13.87;;;11.00;35.80;;;;;;4982570;28;20449;-70
2021/03/26 06:29:56;;;;;;;15.63;13.70;;;11.20;35.70;;;;;;4992293;28;20412;-68
2021/03/26 06:32:49;;;;;;;16.23;14.07;;;11.30;35.40;;;;;;4990629;28;20483;-67
2021/03/26 06:35:20;;;;;;;18.53;14.20;;;11.60;35.60;;;;;;4972263;28;20438;-68
2021/03/26 06:38:28;;;;;;;14.70;13.30;;;11.40;34.70;;;;;;4971752;28;20426;-69
2021/03/26 06:41:12;;;;;;;16.20;14.50;;;11.40;34.90;;;;;;4972820;28;20472;-70
2021/03/26 06:44:07;;;;;;;18.73;15.80;;;11.50;34.70;;;;;;4972444;28;20434;-69
2021/03/26 06:47:11;;;;;;;14.93;13.60;;;11.50;34.90;;;;;;4972385;28;20899;-69
2021/03/26 06:50:06;;;;;;;26.13;15.57;;;11.60;35.60;;;;;;4971904;28;20450;-69
2021/03/26 06:52:56;;;;;;;16.40;12.63;;;11.60;34.30;;;;;;4972039;28;20806;-69
2021/03/26 06:55:40;;;;;;;15.93;13.77;;;11.30;34.10;;;;;;4972214;28;20414;-68
2021/03/26 06:58:56;;;;;;;13.67;11.83;;;11.30;35.00;;;;;;4971278;28;20414;-67
2021/03/26 07:01:45;;;;;;;14.37;11.70;;;11.10;34.80;;;;;;4971225;28;20462;-67
2021/03/26 07:04:29;;;;;;;13.77;12.43;;;11.10;34.90;;;;;;4972015;28;20424;-68
2021/03/26 07:07:08;;;;;;;15.37;12.70;;;11.30;35.00;;;;;;4967921;28;20508;-69
2021/03/26 07:09:52;;;;;;;13.90;12.50;;;11.20;35.30;;;;;;4989154;28;20416;-68
2021/03/26 07:12:36;;;;;;;14.83;12.80;;;11.20;34.90;;;;;;4991157;28;20432;-69
2021/03/26 07:15:12;;;;;;;19.47;13.80;;;11.20;34.80;;;;;;4990158;28;20409;-69
2021/03/26 07:17:47;;;;;;;14.27;12.73;;;11.10;35.00;;;;;;4990692;28;20567;-70
2021/03/26 07:20:52;;;;;;;18.83;14.37;;;11.30;34.90;;;;;;4990921;28;20451;-68
2021/03/26 07:23:36;;;;;;;13.20;12.00;;;11.30;35.10;;;;;;4990066;28;20417;-69
2021/03/26 07:26:18;;;;;;;14.00;12.57;;;11.30;35.00;;;;;;4991371;28;20455;-69
2021/03/26 07:28:47;;;;;;;16.20;13.50;;;11.20;35.40;;;;;;4990601;28;20409;-69
2021/03/26 07:32:09;;;;;;;19.43;13.87;;;11.30;35.00;;;;;;4990560;28;20920;-69
2021/03/26 07:34:54;;;;;;;15.17;12.60;;;11.30;34.80;;;;;;4990990;28;20871;-67
2021/03/26 07:37:23;;;;;;;18.10;12.23;;;11.60;34.50;;;;;;4989761;28;20483;-68
2021/03/26 07:39:56;;;;;;;16.97;12.47;;;11.70;34.20;;;;;;4990923;28;21022;-69
2021/03/26 07:42:30;;;;;;;13.43;12.13;;;11.70;33.90;;;;;;4990746;28;20432;-68
2021/03/26 07:45:22;;;;;;;13.03;11.00;;;11.90;33.40;;;;;;4991051;28;20452;-68
2021/03/26 07:47:59;;;;;;;14.03;12.00;;;12.00;33.20;;;;;;4991786;28;20432;-68
2021/03/26 07:50:36;;;;;;;9.77;8.77;;;12.00;34.50;;;;;;4994345;28;20720;-67
2021/03/26 07:53:20;;;;;;;13.83;11.20;;;13.30;48.60;;;;;;4994415;28;20433;-67
2021/03/26 07:56:23;;;;;;;15.27;11.97;;;13.10;32.80;;;;;;4994900;28;20896;-68
2021/03/26 07:59:25;;;;;;;12.00;10.80;;;13.20;32.80;;;;;;4987261;28;20475;-68
2021/03/26 08:02:28;;;;;;;14.33;11.93;;;13.40;39.70;;;;;;4974911;28;20457;-67
2021/03/26 08:05:18;;;;;;;13.30;11.97;;;13.90;31.10;;;;;;4975040;28;20421;-68
2021/03/26 08:08:13;;;;;;;15.43;13.43;;;13.50;30.80;;;;;;4979523;28;21110;-67
2021/03/26 08:10:54;;;;;;;19.00;14.20;;;13.60;30.90;;;;;;4983703;28;20492;-68
2021/03/26 08:13:50;;;;;;;16.33;14.63;;;13.50;30.50;;;;;;4986301;28;20531;-71
2021/03/26 08:16:46;;;;;;;14.97;13.60;;;13.50;30.80;;;;;;4993203;28;20425;-69
2021/03/26 08:19:43;;;;;;;16.07;13.37;;;13.50;30.60;;;;;;4992508;28;20460;-69
2021/03/26 08:22:38;;;;;;;16.43;13.97;;;13.50;30.20;;;;;;4993760;28;20508;-68
2021/03/26 08:25:17;;;;;;;14.20;12.87;;;13.40;30.80;;;;;;4994309;28;20419;-69
2021/03/26 08:27:59;;;;;;;16.70;14.07;;;13.60;30.80;;;;;;4992029;28;20444;-69
2021/03/26 08:30:45;;;;;;;15.20;13.90;;;13.50;30.10;;;;;;4993019;28;20409;-69
2021/03/26 08:33:36;;;;;;;16.77;13.50;;;13.50;29.60;;;;;;4994111;28;20429;-67
2021/03/26 08:36:39;;;;;;;13.53;12.23;;;13.60;29.30;;;;;;4994107;28;20432;-68
2021/03/26 08:39:35;;;;;;;13.10;11.20;;;13.50;29.70;;;;;;4993334;28;20471;-67
2021/03/26 08:42:14;;;;;;;13.00;10.90;;;13.50;29.80;;;;;;4993558;28;20441;-67
2021/03/26 08:44:40;;;;;;;20.63;12.97;;;13.60;29.70;;;;;;4993526;28;20406;-68
2021/03/26 08:47:21;;;;;;;15.60;12.80;;;13.60;29.40;;;;;;4991741;28;20446;-70
2021/03/26 08:50:23;;;;;;;20.17;16.27;;;13.90;30.50;;;;;;4993183;28;20892;-69
2021/03/26 08:53:20;;;;;;;19.27;15.70;;;14.00;30.80;;;;;;4992247;28;20563;-66
2021/03/26 08:56:04;;;;;;;17.53;13.97;;;14.10;29.60;;;;;;4993053;28;20933;-68
2021/03/26 08:58:52;;;;;;;16.00;13.53;;;14.30;29.80;;;;;;4992360;28;20409;-67
2021/03/26 09:01:24;;;;;;;33.07;15.00;;;14.20;28.30;;;;;;4993136;28;20417;-68
2021/03/26 09:04:17;;;;;;;14.87;13.20;;;14.30;29.10;;;;;;4993049;28;20429;-68
2021/03/26 09:06:51;;;;;;;26.80;14.77;;;14.30;28.90;;;;;;4993000;28;20459;-67
2021/03/26 09:09:46;;;;;;;17.40;14.40;;;14.40;29.00;;;;;;4992538;28;20404;-69
2021/03/26 09:12:24;;;;;;;17.30;13.17;;;14.50;28.70;;;;;;4992723;28;20801;-69
2021/03/26 09:15:15;;;;;;;19.30;14.30;;;14.60;28.40;;;;;;4993038;28;20401;-68
2021/03/26 09:18:01;;;;;;;16.73;12.23;;;14.60;27.70;;;;;;4992392;28;20406;-67
2021/03/26 09:20:41;;;;;;;13.17;11.60;;;14.70;27.80;;;;;;4993337;28;20841;-68
2021/03/26 09:23:35;;;;;;;14.23;12.80;;;14.80;27.60;;;;;;4993263;28;20452;-70
2021/03/26 09:26:27;;;;;;;16.83;13.47;;;14.80;27.40;;;;;;4993346;28;20460;-69
2021/03/26 09:28:56;;;;;;;14.73;12.83;;;14.80;26.90;;;;;;4992814;28;20495;-68
2021/03/26 09:31:47;;;;;;;15.20;13.63;;;14.90;27.70;;;;;;4993440;28;20904;-67
2021/03/26 09:34:27;;;;;;;19.47;12.53;;;15.00;27.30;;;;;;4992824;28;20908;-67
2021/03/26 09:37:07;;;;;;;25.37;14.17;;;15.10;27.50;;;;;;4993178;28;20393;-68
2021/03/26 09:39:34;;;;;;;17.70;13.90;;;15.10;26.90;;;;;;4992709;28;20472;-70
2021/03/26 09:42:30;;;;;;;14.00;12.63;;;15.30;26.80;;;;;;4992648;28;20441;-66
2021/03/26 09:45:12;;;;;;;14.83;13.37;;;15.40;25.90;;;;;;4992566;28;20413;-69
2021/03/26 09:48:16;;;;;;;17.63;13.13;;;15.50;26.90;;;;;;4992116;28;20408;-70
2021/03/26 09:51:02;;;;;;;15.63;13.43;;;15.60;26.50;;;;;;4992502;28;20409;-67
2021/03/26 09:53:35;;;;;;;18.13;14.60;;;15.80;25.70;;;;;;4992335;28;20845;-69
2021/03/26 09:56:17;;;;;;;16.33;12.93;;;16.00;26.50;;;;;;4991456;28;20417;-69
2021/03/26 09:58:52;;;;;;;16.10;12.23;;;16.10;24.20;;;;;;4991671;28;20990;-66
2021/03/26 10:01:43;;;;;;;12.53;11.33;;;16.00;24.30;;;;;;4992558;28;20417;-69
2021/03/26 10:04:15;;;;;;;12.43;11.20;;;16.20;24.20;;;;;;4992857;28;20459;-65
2021/03/26 10:06:52;;;;;;;20.33;11.83;;;16.40;24.70;;;;;;4992783;28;20416;-69
2021/03/26 10:12:26;;;;;;;11.70;10.47;;;16.30;23.80;;;;;;4993065;28;20499;-70
2021/03/26 10:14:55;;;;;;;13.10;11.70;;;16.30;23.30;;;;;;4992405;28;20495;-69
2021/03/26 10:17:35;;;;;;;12.87;10.00;;;16.20;23.20;;;;;;4991528;28;20409;-70
2021/03/26 10:20:20;;;;;;;10.77;9.70;;;16.10;23.80;;;;;;4991810;28;20467;-67
2021/03/26 10:23:11;;;;;;;14.93;10.83;;;16.20;23.40;;;;;;4991161;28;20916;-69
2021/03/26 10:25:43;;;;;;;15.37;10.03;;;16.30;23.90;;;;;;4992288;28;21124;-68
2021/03/26 10:28:32;;;;;;;12.43;11.20;;;16.30;23.20;;;;;;4991730;28;20413;-69
2021/03/26 10:31:07;;;;;;;10.83;9.83;;;16.60;23.20;;;;;;4961575;28;20500;-69
2021/03/26 10:33:44;;;;;;;10.03;9.03;;;16.80;23.00;;;;;;4991570;28;20432;-70
2021/03/26 10:36:23;;;;;;;10.50;9.40;;;16.60;22.10;;;;;;4990764;28;20446;-71
2021/03/26 10:39:05;;;;;;;10.43;8.97;;;16.60;22.00;;;;;;4986982;28;20445;-70
2021/03/26 10:41:46;;;;;;;12.07;9.30;;;16.40;22.20;;;;;;4991762;28;20413;-69
2021/03/26 10:44:32;;;;;;;11.63;9.07;;;16.60;22.30;;;;;;4991734;28;20441;-71
2021/03/26 10:47:23;;;;;;;9.03;8.13;;;16.80;22.00;;;;;;4991927;28;20413;-70
2021/03/26 10:49:59;;;;;;;9.90;8.90;;;16.80;21.10;;;;;;5019647;28;20442;-69
2021/03/26 10:52:44;;;;;;;17.13;9.00;;;16.90;20.90;;;;;;4991782;28;20428;-69
2021/03/26 10:55:16;;;;;;;10.30;8.63;;;17.00;21.30;;;;;;4984460;28;20417;-71
2021/03/26 10:58:02;;;;;;;7.23;6.47;;;17.30;20.60;;;;;;4971877;28;20472;-72
2021/03/26 11:01:02;;;;;;;7.70;7.00;;;17.30;19.90;;;;;;4972001;28;20540;-69
2021/03/26 11:03:35;;;;;;;10.23;7.00;;;17.10;19.70;;;;;;4978587;28;20453;-70
2021/03/26 11:06:11;;;;;;;8.83;7.83;;;17.40;19.40;;;;;;4991396;28;20511;-71
2021/03/26 11:08:42;;;;;;;9.00;5.83;;;17.30;19.10;;;;;;4990587;28;20428;-68
2021/03/26 11:11:10;;;;;;;6.47;5.83;;;17.10;19.10;;;;;;4991336;28;20417;-72
2021/03/26 11:13:54;;;;;;;9.40;6.50;;;17.10;18.60;;;;;;4991781;28;20428;-69
2021/03/26 11:16:32;;;;;;;9.33;7.23;;;17.30;19.30;;;;;;4991766;28;20420;-71
2021/03/26 11:19:26;;;;;;;11.13;7.30;;;17.50;19.30;;;;;;4986334;28;20441;-73
2021/03/26 11:21:56;;;;;;;9.63;7.30;;;17.70;18.10;;;;;;4973602;28;20466;-71
2021/03/26 11:24:23;;;;;;;7.13;6.43;;;17.70;18.10;;;;;;4975825;28;20417;-72
2021/03/26 11:26:55;;;;;;;8.50;6.87;;;18.00;18.80;;;;;;4975756;28;20477;-72
2021/03/26 11:29:32;;;;;;;10.80;7.17;;;18.20;18.60;;;;;;4975420;28;20414;-69
2021/03/26 11:32:24;;;;;;;7.97;7.20;;;17.80;18.00;;;;;;4975469;28;20429;-67
2021/03/26 11:35:00;;;;;;;8.50;7.70;;;17.90;18.30;;;;;;4975870;28;20426;-69
2021/03/26 11:37:36;;;;;;;8.83;7.30;;;18.10;18.40;;;;;;4974806;28;20464;-70
2021/03/26 11:40:18;;;;;;;7.83;6.43;;;18.30;17.70;;;;;;4975898;28;20453;-70
2021/03/26 11:43:11;;;;;;;6.57;6.07;;;18.60;16.90;;;;;;4976235;28;21015;-69
2021/03/26 11:45:42;;;;;;;9.70;5.63;;;18.60;16.40;;;;;;4975931;28;20420;-69
2021/03/26 11:48:35;;;;;;;7.90;7.10;;;18.90;16.30;;;;;;4975237;28;20410;-70
2021/03/26 11:51:26;;;;;;;11.90;7.27;;;19.10;16.10;;;;;;4975376;28;20413;-69
2021/03/26 11:54:10;;;;;;;6.63;6.00;;;19.20;16.20;;;;;;4975530;28;20976;-68
2021/03/26 11:56:38;;;;;;;7.10;6.40;;;19.30;16.00;;;;;;4992957;28;20447;-68
2021/03/26 11:59:45;;;;;;;8.70;7.90;;;19.50;15.60;;;;;;4993805;28;20500;-70
2021/03/26 12:02:19;;;;;;;9.00;6.70;;;19.50;15.50;;;;;;4975324;28;20437;-69
2021/03/26 12:05:24;;;;;;;7.77;6.97;;;19.40;15.20;;;;;;4973914;28;20449;-71
2021/03/26 12:08:09;;;;;;;8.50;7.23;;;19.30;15.30;;;;;;4974481;28;20410;-70
2021/03/26 12:10:42;;;;;;;10.40;7.10;;;19.10;15.90;;;;;;4979413;28;20921;-69
2021/03/26 12:13:36;;;;;;;7.37;6.67;;;19.10;15.90;;;;;;4994454;28;20448;-70
2021/03/26 12:16:19;;;;;;;8.80;7.80;;;18.90;16.00;;;;;;4975301;28;21637;-68
2021/03/26 12:19:05;;;;;;;7.63;6.87;;;18.70;16.30;;;;;;4974198;28;20898;-69
2021/03/26 12:21:41;;;;;;;10.67;8.73;;;18.70;16.40;;;;;;4984291;28;20999;-70
2021/03/26 12:24:36;;;;;;;9.53;8.60;;;18.70;17.20;;;;;;4982356;28;20436;-70
2021/03/26 12:27:44;;;;;;;7.93;7.30;;;18.50;17.30;;;;;;4994107;28;20393;-69
2021/03/26 12:30:32;;;;;;;10.27;8.10;;;18.40;17.70;;;;;;4979412;28;20445;-69
2021/03/26 12:33:15;;;;;;;9.10;8.07;;;18.30;17.90;;;;;;4973841;28;20450;-70
2021/03/26 12:35:50;;;;;;;8.53;7.83;;;18.40;18.40;;;;;;4979758;28;20444;-68
2021/03/26 12:38:42;;;;;;;8.93;7.77;;;18.40;18.60;;;;;;4980071;28;20437;-69
2021/03/26 12:41:49;;;;;;;9.80;9.00;;;18.40;17.80;;;;;;4980500;28;20484;-68
2021/03/26 12:44:43;;;;;;;9.70;8.47;;;18.40;17.60;;;;;;4993603;28;20501;-68
2021/03/26 12:47:43;;;;;;;8.63;7.70;;;18.40;17.60;;;;;;4993175;28;20408;-68
2021/03/26 12:50:11;;;;;;;11.83;7.23;;;18.40;17.60;;;;;;4992373;28;20859;-70
2021/03/26 12:52:48;;;;;;;7.93;7.07;;;18.40;17.50;;;;;;4993233;28;20496;-69
2021/03/26 12:55:36;;;;;;;7.20;6.50;;;18.40;17.60;;;;;;4990182;28;20433;-69
2021/03/26 12:58:22;;;;;;;8.20;7.50;;;18.40;17.20;;;;;;4990814;28;20416;-68
2021/03/26 13:01:04;;;;;;;9.47;7.00;;;18.50;17.50;;;;;;4987103;28;20488;-69
2021/03/26 13:03:36;;;;;;;6.80;6.07;;;18.50;17.60;;;;;;4985800;28;20470;-68
2021/03/26 13:06:22;;;;;;;6.50;5.97;;;18.50;17.20;;;;;;4993324;28;20814;-68
2021/03/26 13:08:50;;;;;;;7.33;6.57;;;18.50;17.60;;;;;;4986529;28;20433;-68
2021/03/26 13:11:31;;;;;;;6.20;5.60;;;18.40;16.90;;;;;;4974780;28;20429;-68
2021/03/26 13:14:13;;;;;;;5.63;5.23;;;18.40;17.10;;;;;;4990507;28;20433;-68
2021/03/26 13:16:44;;;;;;;8.33;7.40;;;18.40;16.60;;;;;;4993307;28;20774;-67
2021/03/26 13:19:19;;;;;;;6.53;6.07;;;18.50;17.10;;;;;;4992507;28;20556;-69
2021/03/26 13:21:50;;;;;;;11.50;5.80;;;18.50;16.90;;;;;;4987934;28;20417;-69
2021/03/26 13:24:42;;;;;;;6.87;6.17;;;18.40;16.60;;;;;;4992809;28;20414;-69
2021/03/26 13:27:20;;;;;;;6.27;5.77;;;18.40;15.80;;;;;;4977967;28;20513;-68
2021/03/26 13:30:14;;;;;;;5.60;5.10;;;18.30;15.60;;;;;;4986197;28;20444;-69
2021/03/26 13:32:58;;;;;;;8.87;6.70;;;18.30;16.30;;;;;;4986447;28;20464;-68
2021/03/26 13:35:41;;;;;;;6.60;5.50;;;18.30;15.30;;;;;;4992930;28;20917;-70
2021/03/26 13:38:32;;;;;;;6.67;5.97;;;18.30;15.80;;;;;;4992068;28;20453;-71
2021/03/26 13:41:02;;;;;;;9.40;5.70;;;18.30;15.30;;;;;;4992746;28;20465;-70
2021/03/26 13:43:32;;;;;;;5.37;4.53;;;18.30;15.20;;;;;;4993533;28;20507;-70
2021/03/26 13:46:06;;;;;;;7.13;4.80;;;18.30;16.50;;;;;;4992773;28;21081;-70